Main page
METAR-TAF:

METAR-TAF

Airports :

Northwest Alabama Regional Airport

Muscle Shoals, Alabama, United States

latitude: 34-44-38N, longitude: 087-35-58W, elevation: 548 ft

Current weather observation

The report was made 1 hour and 5 minutes ago, at 01:53 UTC
Calm wind
Temperature 84°F
Humidity 58%
Pressure 29.93 in. Hg
Visibility: 10 miles
Clear sky

METAR: KMSL 250153Z AUTO 00000KT 10SM CLR 29/20 A2993 RMK AO2 SLP126 T02890200

Time: 21:58 (02:58 UTC)

Forecast

The report was made 3 hours and 21 minutes ago, at 23:37 UTC
Forecast valid from 25 at 00 UTC to 25 at 24 UTC
Wind 5 mph from variable directions
Visibility: 6 miles
Clear sky
From 25 at 0500 UTC
Wind 0 mph from the North
Visibility: 6 miles
Clear sky

TAF: KMSL 242337Z 2500/2524 VRB04KT P6SM SKC FM250500 00000KT P6SM SKC

Weather observations and forecasts of more than 4000 airports (METAR and TAF reports).

The available stations are represented by yellow and red dots on the map.

Hover mouse over dot to see the name of the station.

Then click to see weather observations and forecasts.

To change the map : click on the green buttons with a black cross to zoom in, on the green button with a dash to zoom out, or on the green arrows for adjacent maps.


METAR-TAF: